Time;durP1;ratioP1;P1;durP2;ratioP2;P2;SDS_P1;SDS_P2;PMS_P1;PMS_P2;Temp;Humidity;BMP_temperature;BMP_pressure;BME280_temperature;BME280_humidity;BME280_pressure;Samples;Min_cycle;Max_cycle;Signal;HPM_P1;HPM_P2
2023/06/19 00:00:12;;;;;;;1.30;0.77;;;19.60;99.90;;;;;;5015509;28;20492;-89
2023/06/19 00:02:42;;;;;;;0.10;0.10;;;19.50;99.90;;;;;;5015358;28;20149;-89
2023/06/19 00:05:09;;;;;;;0.47;0.45;;;19.50;99.90;;;;;;5015460;28;20050;-89
2023/06/19 00:07:39;;;;;;;0.98;0.90;;;19.50;99.90;;;;;;4999051;28;20046;-89
2023/06/19 00:10:08;;;;;;;0.85;0.75;;;19.50;99.90;;;;;;4998424;28;20149;-89
2023/06/19 00:12:34;;;;;;;5.32;1.05;;;19.40;99.90;;;;;;4998642;28;20093;-89
2023/06/19 00:14:59;;;;;;;1.02;0.95;;;19.40;99.90;;;;;;4999024;28;20046;-89
2023/06/19 00:17:28;;;;;;;0.85;0.75;;;19.40;99.90;;;;;;5000647;28;20050;-89
2023/06/19 00:19:57;;;;;;;0.93;0.80;;;20.30;99.90;;;;;;4998698;28;20050;-88
2023/06/19 00:22:25;;;;;;;1.40;1.10;;;19.30;64.30;;;;;;5014357;28;20069;-88
2023/06/19 00:24:51;;;;;;;0.35;0.32;;;19.60;1.00;;;;;;4998465;28;20050;-88
2023/06/19 00:27:18;;;;;;;3.30;1.10;;;19.40;99.90;;;;;;5000262;28;20046;-88
2023/06/19 00:29:44;;;;;;;1.85;0.75;;;19.40;99.90;;;;;;4999322;28;20522;-88
2023/06/19 00:32:10;;;;;;;0.50;0.50;;;19.50;1.00;;;;;;4997814;28;20125;-88
2023/06/19 00:34:36;;;;;;;0.68;0.65;;;19.90;99.90;;;;;;4998276;28;20481;-89
2023/06/19 00:37:03;;;;;;;0.35;0.30;;;19.50;99.90;;;;;;4998154;28;20049;-89
2023/06/19 00:39:29;;;;;;;0.73;0.73;;;19.60;99.90;;;;;;5014454;28;20106;-88
2023/06/19 00:41:56;;;;;;;1.10;0.80;;;19.50;68.40;;;;;;4999537;28;20324;-89
2023/06/19 00:44:22;;;;;;;1.55;1.15;;;19.60;1.00;;;;;;4998321;28;20482;-89
2023/06/19 00:46:54;;;;;;;0.80;0.60;;;19.80;99.90;;;;;;4999652;28;20053;-88
2023/06/19 00:49:20;;;;;;;0.80;0.38;;;19.70;99.90;;;;;;4998165;28;20058;-89
2023/06/19 00:51:46;;;;;;;1.42;0.88;;;19.90;99.90;;;;;;5014136;28;20054;-88
2023/06/19 00:54:12;;;;;;;0.25;0.25;;;19.50;1.00;;;;;;5014429;28;20050;-88
2023/06/19 00:56:39;;;;;;;0.20;0.20;;;19.60;99.90;;;;;;4997617;28;20042;-89
2023/06/19 00:59:11;;;;;;;3.47;1.58;;;19.60;99.90;;;;;;4999152;28;20058;-89
2023/06/19 01:01:38;;;;;;;0.40;0.40;;;19.70;99.90;;;;;;4997329;28;20469;-89
2023/06/19 01:04:04;;;;;;;2.20;1.13;;;19.60;1.00;;;;;;4997891;28;20053;-89
2023/06/19 01:06:38;;;;;;;0.47;0.45;;;20.50;1.00;;;;;;5013948;28;20050;-89
2023/06/19 01:09:11;;;;;;;0.85;0.55;;;20.70;99.90;;;;;;5014060;28;20062;-89
2023/06/19 01:11:46;;;;;;;0.13;0.13;;;18.50;1.40;;;;;;4999415;28;20081;-89
2023/06/19 01:14:21;;;;;;;1.83;0.90;;;19.70;99.90;;;;;;5014599;28;20065;-89
2023/06/19 01:16:47;;;;;;;1.30;1.15;;;19.70;99.90;;;;;;5015483;28;20042;-89
2023/06/19 01:19:18;;;;;;;0.88;0.50;;;19.80;99.90;;;;;;5015120;28;20042;-89
2023/06/19 01:21:45;;;;;;;0.28;0.28;;;19.80;99.90;;;;;;4999780;28;20137;-89
2023/06/19 01:24:11;;;;;;;1.10;1.00;;;19.90;99.90;;;;;;4998796;28;20110;-89
2023/06/19 01:26:37;;;;;;;0.40;0.40;;;19.90;1.00;;;;;;4999478;28;20088;-89
2023/06/19 01:29:04;;;;;;;7.97;2.60;;;21.00;1.00;;;;;;4999553;28;20042;-89
2023/06/19 01:31:54;;;;;;;1.45;0.95;;;20.00;99.90;;;;;;5001459;28;20054;-89
2023/06/19 01:34:21;;;;;;;0.95;0.63;;;20.00;99.90;;;;;;5004609;28;20042;-90
2023/06/19 01:36:49;;;;;;;1.50;1.00;;;20.10;97.80;;;;;;5017810;28;20042;-89
2023/06/19 01:39:17;;;;;;;1.30;0.85;;;19.20;1.00;;;;;;5000949;28;20101;-90
2023/06/19 01:41:44;;;;;;;0.88;0.65;;;19.80;1.00;;;;;;5015345;28;20138;-89
2023/06/19 01:44:10;;;;;;;0.82;0.70;;;20.00;1.00;;;;;;4998275;28;20046;-89
2023/06/19 01:46:37;;;;;;;1.70;0.65;;;20.70;1.00;;;;;;4998222;28;20057;-89
2023/06/19 01:49:07;;;;;;;1.23;1.02;;;20.80;99.90;;;;;;4997474;28;20076;-90
2023/06/19 01:51:33;;;;;;;1.20;0.50;;;20.00;99.90;;;;;;4998560;28;20401;-89
2023/06/19 01:53:59;;;;;;;0.60;0.60;;;20.00;99.90;;;;;;5012633;28;20046;-89
2023/06/19 01:56:24;;;;;;;1.38;0.40;;;19.40;1.00;;;;;;5013428;28;20046;-89
2023/06/19 01:58:50;;;;;;;0.40;0.32;;;21.30;99.90;;;;;;4997634;28;20070;-89
2023/06/19 02:01:16;;;;;;;4.28;1.38;;;21.30;99.90;;;;;;4997033;28;20045;-89
2023/06/19 02:03:42;;;;;;;0.63;0.32;;;20.50;63.50;;;;;;5001457;28;20050;-89
2023/06/19 02:06:08;;;;;;;0.82;0.82;;;20.10;23.90;;;;;;5000597;28;20050;-89
2023/06/19 02:08:33;;;;;;;0.73;0.70;;;21.40;1.00;;;;;;5002063;28;20046;-90
2023/06/19 02:10:59;;;;;;;0.22;0.22;;;19.00;1.00;;;;;;5000953;28;20054;-90
2023/06/19 02:13:25;;;;;;;0.85;0.63;;;20.30;99.90;;;;;;5018256;28;20588;-90
2023/06/19 02:15:51;;;;;;;0.55;0.43;;;20.20;99.90;;;;;;5002257;28;20054;-90
2023/06/19 02:18:17;;;;;;;6.70;1.33;;;20.30;99.90;;;;;;5000769;28;20042;-90
2023/06/19 02:20:45;;;;;;;2.35;1.38;;;19.30;99.90;;;;;;5016807;28;20097;-90
2023/06/19 02:23:14;;;;;;;1.08;0.93;;;20.10;99.90;;;;;;5000781;28;20053;-90
2023/06/19 02:25:41;;;;;;;0.45;0.45;;;20.10;99.90;;;;;;5016947;28;20053;-90
2023/06/19 02:28:11;;;;;;;0.65;0.40;;;20.10;99.90;;;;;;5001239;28;20046;-89
2023/06/19 02:30:37;;;;;;;1.58;1.10;;;20.10;99.90;;;;;;5000660;28;20046;-90
2023/06/19 02:33:03;;;;;;;0.82;0.77;;;20.40;99.90;;;;;;5017097;28;20451;-90
2023/06/19 02:35:29;;;;;;;0.63;0.43;;;20.00;99.90;;;;;;5017033;28;20125;-90
2023/06/19 02:37:57;;;;;;;0.93;0.77;;;20.10;99.90;;;;;;5000127;28;20046;-89
2023/06/19 02:40:26;;;;;;;1.38;0.73;;;20.00;99.90;;;;;;5000472;28;20424;-89
2023/06/19 02:42:52;;;;;;;0.98;0.77;;;20.00;99.90;;;;;;5000879;28;20149;-90
2023/06/19 02:45:18;;;;;;;1.13;0.70;;;20.00;99.90;;;;;;5017609;28;20089;-90
2023/06/19 02:47:44;;;;;;;0.75;0.75;;;20.40;99.90;;;;;;5017176;28;20042;-90
2023/06/19 02:50:10;;;;;;;1.90;0.88;;;20.00;99.90;;;;;;5002038;28;20114;-90
2023/06/19 02:52:36;;;;;;;1.08;0.80;;;20.10;92.70;;;;;;5016819;28;20309;-90
2023/06/19 02:55:02;;;;;;;0.17;0.17;;;20.10;95.40;;;;;;4984062;28;20082;-90
2023/06/19 02:57:28;;;;;;;1.08;0.88;;;20.20;82.50;;;;;;5016856;28;20073;-90
2023/06/19 02:59:54;;;;;;;0.75;0.50;;;20.20;91.00;;;;;;5000710;28;20054;-90
2023/06/19 03:02:20;;;;;;;1.17;0.85;;;20.10;92.50;;;;;;5015485;28;20053;-90
2023/06/19 03:04:45;;;;;;;1.08;0.88;;;20.90;92.40;;;;;;4990628;28;20054;-90
2023/06/19 03:07:13;;;;;;;0.40;0.32;;;20.30;62.70;;;;;;4990548;28;20042;-90
2023/06/19 03:09:39;;;;;;;2.00;0.80;;;21.70;51.00;;;;;;4990792;28;20054;-90
2023/06/19 03:12:05;;;;;;;1.75;0.70;;;21.10;26.60;;;;;;4990368;28;20053;-90
2023/06/19 03:14:31;;;;;;;2.42;1.42;;;20.70;12.40;;;;;;4990136;28;20136;-90
2023/06/19 03:16:56;;;;;;;0.77;0.70;;;20.80;5.70;;;;;;4990153;28;20050;-90
2023/06/19 03:19:22;;;;;;;0.25;0.25;;;20.80;1.00;;;;;;4990235;28;20050;-90
2023/06/19 03:21:48;;;;;;;1.20;0.73;;;20.90;9.50;;;;;;4989935;28;20054;-90
2023/06/19 03:24:14;;;;;;;0.30;0.30;;;20.90;5.70;;;;;;5007254;28;20046;-90
2023/06/19 03:26:40;;;;;;;1.27;1.00;;;21.00;12.20;;;;;;4992201;28;20046;-90
2023/06/19 03:29:11;;;;;;;0.45;0.30;;;20.90;26.80;;;;;;4992153;28;20413;-90
2023/06/19 03:31:39;;;;;;;1.00;0.85;;;20.80;42.30;;;;;;5007895;28;20046;-90
2023/06/19 03:34:05;;;;;;;2.10;1.05;;;20.90;74.30;;;;;;4991291;28;20051;-90
2023/06/19 03:36:31;;;;;;;0.17;0.17;;;20.90;89.80;;;;;;5014717;28;20047;-90
2023/06/19 03:38:56;;;;;;;2.58;1.75;;;20.90;99.50;;;;;;4999982;28;20116;-90
2023/06/19 03:41:22;;;;;;;1.25;0.75;;;20.90;99.90;;;;;;4991981;28;20596;-90
2023/06/19 03:43:48;;;;;;;1.00;0.73;;;20.80;99.90;;;;;;4993836;28;20082;-90
2023/06/19 03:46:13;;;;;;;0.68;0.60;;;22.30;99.90;;;;;;4991220;28;20057;-90
2023/06/19 03:48:39;;;;;;;1.50;0.40;;;21.30;99.90;;;;;;4991382;28;20046;-90
2023/06/19 03:51:04;;;;;;;0.93;0.85;;;21.00;99.90;;;;;;4992755;28;20046;-90
2023/06/19 03:53:30;;;;;;;1.48;1.00;;;21.50;99.90;;;;;;4991662;28;20046;-90
2023/06/19 03:55:56;;;;;;;0.85;0.68;;;20.90;99.90;;;;;;5008932;28;20049;-90
2023/06/19 03:58:21;;;;;;;0.88;0.60;;;21.00;99.90;;;;;;4994147;28;20053;-90
2023/06/19 04:00:47;;;;;;;1.10;0.65;;;21.40;99.90;;;;;;4993869;28;20042;-90
2023/06/19 04:03:13;;;;;;;2.28;1.30;;;21.00;99.90;;;;;;4992208;28;20042;-90
2023/06/19 04:05:41;;;;;;;0.17;0.15;;;20.90;99.90;;;;;;4991071;28;20082;-90
2023/06/19 04:08:07;;;;;;;9.48;0.70;;;21.30;99.90;;;;;;4990788;28;20046;-90
2023/06/19 04:10:32;;;;;;;2.60;0.77;;;20.80;99.90;;;;;;4991782;28;20412;-89
2023/06/19 04:12:58;;;;;;;1.20;0.75;;;20.80;99.90;;;;;;5008876;28;20046;-90
2023/06/19 04:15:23;;;;;;;0.43;0.43;;;21.30;99.90;;;;;;5009397;28;20046;-90
2023/06/19 04:17:49;;;;;;;0.35;0.25;;;20.80;99.90;;;;;;4994081;28;20991;-90
2023/06/19 04:20:15;;;;;;;0.20;0.20;;;20.80;1.00;;;;;;4991993;28;20513;-90
2023/06/19 04:22:41;;;;;;;0.63;0.55;;;20.80;1.00;;;;;;4991528;28;20108;-89
2023/06/19 04:25:10;;;;;;;0.75;0.43;;;21.10;1.00;;;;;;4990080;28;20100;-90
2023/06/19 04:27:36;;;;;;;1.65;0.90;;;20.80;20.60;;;;;;4991326;28;20092;-90
2023/06/19 04:30:06;;;;;;;0.10;0.10;;;20.80;92.40;;;;;;4991470;28;20050;-90
2023/06/19 04:32:32;;;;;;;0.93;0.75;;;20.90;96.10;;;;;;4989516;28;20137;-90
2023/06/19 04:34:58;;;;;;;0.40;0.32;;;21.50;99.90;;;;;;4990473;28;20057;-90
2023/06/19 04:37:24;;;;;;;0.25;0.25;;;22.30;99.90;;;;;;4993825;28;20081;-89
2023/06/19 04:39:50;;;;;;;0.28;0.28;;;21.10;99.90;;;;;;4994158;28;20390;-90
2023/06/19 04:42:19;;;;;;;0.30;0.20;;;21.20;99.90;;;;;;4996975;28;20503;-89
2023/06/19 04:44:48;;;;;;;0.55;0.47;;;21.20;99.90;;;;;;5007225;28;20046;-90
2023/06/19 04:47:16;;;;;;;0.95;0.60;;;21.10;99.90;;;;;;4991461;28;20050;-90
2023/06/19 04:49:42;;;;;;;0.32;0.32;;;21.20;99.90;;;;;;4990030;28;20046;-89
2023/06/19 04:52:08;;;;;;;0.40;0.40;;;21.40;99.90;;;;;;4989266;28;20401;-90
2023/06/19 04:54:33;;;;;;;0.57;0.30;;;21.70;71.00;;;;;;4988926;28;20077;-89
2023/06/19 04:56:59;;;;;;;0.20;0.20;;;22.10;1.00;;;;;;4988783;28;20046;-89
2023/06/19 04:59:25;;;;;;;0.22;0.13;;;22.70;99.90;;;;;;5004836;28;20050;-90
2023/06/19 05:01:54;;;;;;;0.43;0.40;;;22.70;99.90;;;;;;4988523;28;20038;-90
2023/06/19 05:04:23;;;;;;;0.10;0.10;;;22.90;99.90;;;;;;5005822;28;20050;-89
2023/06/19 05:06:50;;;;;;;0.85;0.50;;;23.10;99.90;;;;;;5005071;28;20050;-89
2023/06/19 05:09:16;;;;;;;0.25;0.25;;;23.40;99.90;;;;;;5004381;28;20613;-90
2023/06/19 05:11:42;;;;;;;0.30;0.30;;;24.80;99.90;;;;;;4989788;28;20158;-90
2023/06/19 05:14:07;;;;;;;0.32;0.22;;;24.90;99.90;;;;;;4988178;28;20050;-90
2023/06/19 05:16:36;;;;;;;0.32;0.22;;;24.20;99.90;;;;;;4990160;28;20046;-89
2023/06/19 05:19:02;;;;;;;0.20;0.17;;;23.70;99.90;;;;;;4988825;28;20399;-90
2023/06/19 05:21:28;;;;;;;13.25;1.88;;;23.90;99.90;;;;;;4989471;28;20061;-90
2023/06/19 05:23:53;;;;;;;0.30;0.30;;;24.00;99.90;;;;;;5004255;28;20050;-90
2023/06/19 05:26:29;;;;;;;0.60;0.60;;;23.90;99.90;;;;;;4987525;28;20042;-90
2023/06/19 05:28:55;;;;;;;0.70;0.70;;;23.90;99.90;;;;;;4991383;28;20416;-90
2023/06/19 05:31:21;;;;;;;0.10;0.10;;;24.20;99.90;;;;;;4988641;28;20054;-90
2023/06/19 05:33:47;;;;;;;0.00;0.00;;;24.20;99.90;;;;;;5005723;28;20081;-90
2023/06/19 05:36:21;;;;;;;0.45;0.10;;;24.20;96.60;;;;;;4988671;28;20081;-90
2023/06/19 05:38:47;;;;;;;0.15;0.15;;;25.20;92.00;;;;;;4988572;28;20054;-90
2023/06/19 05:41:20;;;;;;;0.45;0.25;;;24.80;58.10;;;;;;5005745;28;20065;-90
2023/06/19 05:43:48;;;;;;;0.25;0.25;;;25.00;50.70;;;;;;4988721;28;20077;-90
2023/06/19 05:46:14;;;;;;;1.02;0.70;;;24.60;14.70;;;;;;4988262;28;20352;-90
2023/06/19 05:48:40;;;;;;;0.00;0.00;;;25.00;18.00;;;;;;4987758;28;20042;-90
2023/06/19 05:51:06;;;;;;;0.32;0.22;;;24.70;31.60;;;;;;5004323;28;20046;-90
2023/06/19 05:53:32;;;;;;;0.20;0.20;;;24.10;92.30;;;;;;4988163;28;20038;-90
2023/06/19 05:55:58;;;;;;;1.63;0.40;;;23.50;99.90;;;;;;5005921;28;20050;-90
2023/06/19 05:58:25;;;;;;;0.55;0.25;;;23.20;99.90;;;;;;4996621;28;20044;-90
2023/06/19 06:00:59;;;;;;;1.95;1.17;;;24.20;99.90;;;;;;4990282;28;20050;-90
2023/06/19 06:03:25;;;;;;;0.40;0.40;;;22.70;1.00;;;;;;4988763;28;20096;-89
2023/06/19 06:05:51;;;;;;;0.77;0.77;;;23.20;9.30;;;;;;4989452;28;20058;-90
2023/06/19 06:08:17;;;;;;;0.35;0.25;;;22.50;99.90;;;;;;5007431;28;20046;-90
2023/06/19 06:10:43;;;;;;;0.60;0.40;;;22.30;99.90;;;;;;4991585;28;20065;-90
2023/06/19 06:13:09;;;;;;;0.30;0.30;;;22.30;99.90;;;;;;4988950;28;20054;-90
2023/06/19 06:15:35;;;;;;;0.20;0.20;;;22.30;1.00;;;;;;4992601;28;20038;-90
2023/06/19 06:18:00;;;;;;;0.00;0.00;;;22.30;1.00;;;;;;5024913;28;20070;-90
2023/06/19 06:20:26;;;;;;;0.50;0.50;;;22.40;28.20;;;;;;5012064;28;20050;-90
2023/06/19 06:22:53;;;;;;;0.22;0.22;;;22.50;1.00;;;;;;5013566;28;20026;-90
2023/06/19 06:25:19;;;;;;;0.17;0.17;;;23.10;1.00;;;;;;5029083;28;20136;-90
2023/06/19 06:27:45;;;;;;;0.77;0.38;;;22.60;1.00;;;;;;5030147;28;20042;-90
2023/06/19 06:30:12;;;;;;;0.80;0.63;;;22.70;1.00;;;;;;5010675;28;20109;-90
2023/06/19 06:32:38;;;;;;;0.30;0.20;;;22.90;1.00;;;;;;5011690;28;20042;-90
2023/06/19 06:35:05;;;;;;;1.10;0.52;;;22.80;99.90;;;;;;4993838;28;20476;-91
2023/06/19 06:37:37;;;;;;;0.55;0.35;;;23.40;99.90;;;;;;4989512;28;20054;-91
2023/06/19 06:40:10;;;;;;;0.77;0.73;;;23.70;99.90;;;;;;4990482;28;20077;-90
2023/06/19 06:42:37;;;;;;;0.17;0.17;;;23.60;94.50;;;;;;4992801;28;20049;-90
2023/06/19 06:45:06;;;;;;;2.10;0.30;;;23.30;99.90;;;;;;5010131;28;20050;-90
2023/06/19 06:47:32;;;;;;;0.55;0.38;;;23.30;99.90;;;;;;4992156;28;20057;-90
2023/06/19 06:49:58;;;;;;;0.65;0.65;;;22.70;1.00;;;;;;4992403;28;20046;-90
2023/06/19 06:52:24;;;;;;;0.40;0.40;;;22.40;99.90;;;;;;4994217;28;20050;-90
2023/06/19 06:54:50;;;;;;;0.47;0.47;;;23.10;1.00;;;;;;4992033;28;20454;-90
2023/06/19 06:57:17;;;;;;;1.45;0.75;;;21.40;99.90;;;;;;4993802;28;20133;-90
2023/06/19 06:59:43;;;;;;;0.35;0.28;;;22.00;99.90;;;;;;4993202;28;20050;-90
2023/06/19 07:02:08;;;;;;;3.00;1.20;;;21.80;1.00;;;;;;4998277;28;20049;-90
2023/06/19 07:04:34;;;;;;;0.80;0.40;;;20.60;99.90;;;;;;4992910;28;20054;-90
2023/06/19 07:07:00;;;;;;;0.45;0.38;;;22.70;1.00;;;;;;4991873;28;20425;-90
2023/06/19 07:09:26;;;;;;;0.32;0.30;;;21.30;99.90;;;;;;5008108;28;20167;-88
2023/06/19 07:11:52;;;;;;;0.47;0.45;;;21.30;99.90;;;;;;4989072;28;20077;-85
2023/06/19 07:14:18;;;;;;;0.63;0.32;;;21.30;99.90;;;;;;4995432;28;20618;-85
2023/06/19 07:16:45;;;;;;;0.90;0.25;;;21.20;78.00;;;;;;4992831;28;20046;-85
2023/06/19 07:19:12;;;;;;;1.00;0.63;;;21.20;99.90;;;;;;4988763;28;20046;-85
2023/06/19 07:21:38;;;;;;;0.50;0.50;;;20.80;1.00;;;;;;4970441;28;20505;-85
2023/06/19 07:24:05;;;;;;;2.88;1.42;;;21.10;9.20;;;;;;4969096;28;20050;-85
2023/06/19 07:26:31;;;;;;;0.85;0.82;;;21.00;99.90;;;;;;4968934;28;20434;-85
2023/06/19 07:28:56;;;;;;;1.42;0.30;;;21.70;1.00;;;;;;4968708;28;20105;-85
2023/06/19 07:31:22;;;;;;;0.57;0.57;;;20.80;99.90;;;;;;4968074;28;20051;-85
2023/06/19 07:33:48;;;;;;;1.98;1.48;;;20.80;99.90;;;;;;4968623;28;20047;-85
2023/06/19 07:36:15;;;;;;;2.45;1.30;;;20.80;99.90;;;;;;4969873;28;20141;-85
2023/06/19 07:38:43;;;;;;;10.73;1.75;;;20.90;99.90;;;;;;4949966;28;20048;-85
2023/06/19 07:41:09;;;;;;;1.63;1.15;;;21.10;2.60;;;;;;4948952;28;20103;-85
2023/06/19 07:43:36;;;;;;;0.30;0.30;;;21.60;99.90;;;;;;4949651;28;20058;-85
2023/06/19 07:46:02;;;;;;;2.63;1.70;;;21.50;1.00;;;;;;4949702;28;20107;-85
2023/06/19 07:48:28;;;;;;;4.25;1.15;;;21.70;99.90;;;;;;4952921;28;20049;-86
2023/06/19 07:50:54;;;;;;;2.10;0.88;;;21.90;1.00;;;;;;4969202;28;20050;-86
2023/06/19 07:53:20;;;;;;;1.33;1.05;;;22.00;99.90;;;;;;4969617;28;20043;-85
2023/06/19 07:55:46;;;;;;;0.80;0.77;;;22.10;99.90;;;;;;4969251;28;20050;-85
2023/06/19 07:58:11;;;;;;;0.63;0.50;;;22.30;15.00;;;;;;4969726;28;20101;-85
2023/06/19 08:00:37;;;;;;;1.17;0.65;;;22.20;1.00;;;;;;4967589;28;20047;-85
2023/06/19 08:03:04;;;;;;;6.65;1.35;;;22.00;34.30;;;;;;4968151;28;20097;-85
2023/06/19 08:05:29;;;;;;;1.17;0.82;;;22.00;17.90;;;;;;4968985;28;20057;-85
2023/06/19 08:07:56;;;;;;;0.25;0.25;;;21.90;1.00;;;;;;4968388;28;20137;-86
2023/06/19 08:10:22;;;;;;;0.75;0.73;;;21.60;99.90;;;;;;4968133;28;20513;-86
2023/06/19 08:12:47;;;;;;;0.17;0.17;;;22.50;99.90;;;;;;4968134;28;20061;-86
2023/06/19 08:15:13;;;;;;;0.63;0.63;;;21.30;99.90;;;;;;4967578;28;20090;-86
2023/06/19 08:17:40;;;;;;;0.40;0.25;;;21.60;7.80;;;;;;4968278;28;20059;-86
2023/06/19 08:20:06;;;;;;;1.80;0.77;;;21.10;91.30;;;;;;4968415;28;20058;-86
2023/06/19 08:22:32;;;;;;;0.55;0.45;;;21.10;26.60;;;;;;4968200;28;20050;-86
2023/06/19 08:24:58;;;;;;;0.20;0.20;;;21.20;26.70;;;;;;4968689;28;20069;-86
2023/06/19 08:27:24;;;;;;;0.30;0.30;;;21.30;1.00;;;;;;4967837;28;20561;-85
2023/06/19 08:29:49;;;;;;;1.08;0.57;;;21.50;99.90;;;;;;4967426;28;20101;-86
2023/06/19 08:32:16;;;;;;;0.43;0.38;;;21.70;2.70;;;;;;4968010;28;20107;-86
2023/06/19 08:34:41;;;;;;;0.20;0.20;;;22.30;99.90;;;;;;4967638;28;20050;-85
2023/06/19 08:37:08;;;;;;;0.55;0.43;;;21.80;99.90;;;;;;4967308;28;20054;-86
2023/06/19 08:39:35;;;;;;;0.77;0.77;;;22.00;1.00;;;;;;4967265;28;20093;-86
2023/06/19 08:42:02;;;;;;;0.47;0.47;;;22.40;99.90;;;;;;4967403;28;20070;-86
2023/06/19 08:44:28;;;;;;;0.20;0.20;;;22.10;99.90;;;;;;4982302;28;20054;-86
2023/06/19 08:46:54;;;;;;;0.35;0.28;;;22.10;88.80;;;;;;4966084;28;20405;-86
2023/06/19 08:49:20;;;;;;;0.55;0.47;;;22.20;1.00;;;;;;4966954;28;20047;-86
2023/06/19 08:51:45;;;;;;;0.65;0.43;;;22.30;99.90;;;;;;4966826;28;20054;-86
2023/06/19 08:54:13;;;;;;;0.30;0.30;;;22.40;62.60;;;;;;4966989;28;20058;-86
2023/06/19 08:56:38;;;;;;;0.57;0.57;;;22.40;1.00;;;;;;4965059;28;20059;-86
2023/06/19 08:59:12;;;;;;;0.00;0.00;;;22.30;99.90;;;;;;4966847;28;20043;-86
2023/06/19 09:01:39;;;;;;;0.22;0.20;;;22.50;99.90;;;;;;4967196;28;20066;-86
2023/06/19 09:04:13;;;;;;;2.25;0.73;;;22.60;99.90;;;;;;4967054;28;20143;-86
2023/06/19 09:06:50;;;;;;;1.48;0.98;;;22.50;99.90;;;;;;4966233;28;20058;-86
2023/06/19 09:09:17;;;;;;;0.25;0.20;;;22.40;99.90;;;;;;4966855;28;20138;-86
2023/06/19 09:11:43;;;;;;;2.05;1.15;;;22.40;99.90;;;;;;4966524;28;20137;-86
2023/06/19 09:14:12;;;;;;;0.13;0.13;;;22.40;1.00;;;;;;4965535;28;20485;-86
2023/06/19 09:16:40;;;;;;;0.30;0.17;;;22.50;1.00;;;;;;4966870;28;20130;-86
2023/06/19 09:19:05;;;;;;;0.22;0.22;;;22.60;99.90;;;;;;4967323;28;20058;-86
2023/06/19 09:21:31;;;;;;;0.20;0.20;;;22.60;99.90;;;;;;4967440;28;20057;-85
2023/06/19 09:24:07;;;;;;;0.20;0.20;;;22.80;99.90;;;;;;4965422;28;20097;-85
2023/06/19 09:26:34;;;;;;;0.30;0.25;;;23.10;99.90;;;;;;4967327;28;20063;-85
2023/06/19 09:29:13;;;;;;;1.95;0.70;;;23.60;99.90;;;;;;4967432;28;20093;-85
2023/06/19 09:31:41;;;;;;;0.70;0.38;;;24.20;1.00;;;;;;4967363;28;20055;-85
2023/06/19 09:34:08;;;;;;;0.20;0.17;;;24.40;99.90;;;;;;4965811;28;20051;-86
2023/06/19 09:36:35;;;;;;;0.15;0.15;;;24.20;99.90;;;;;;4967832;28;20086;-86
2023/06/19 09:39:02;;;;;;;4.95;1.00;;;23.90;99.90;;;;;;4967219;28;20039;-85
2023/06/19 09:41:29;;;;;;;0.90;0.52;;;23.40;99.90;;;;;;4967273;28;20061;-85
2023/06/19 09:43:59;;;;;;;0.60;0.38;;;24.00;99.90;;;;;;4975200;28;20095;-86
2023/06/19 09:46:31;;;;;;;1.05;0.17;;;22.90;99.90;;;;;;4969166;28;20057;-86
2023/06/19 09:49:01;;;;;;;0.75;0.40;;;22.80;99.90;;;;;;4967743;28;20578;-85
2023/06/19 09:51:33;;;;;;;0.20;0.20;;;23.50;99.90;;;;;;4967218;28;20501;-83
2023/06/19 09:54:02;;;;;;;0.40;0.35;;;22.90;99.90;;;;;;4967370;28;20572;-84
2023/06/19 09:56:27;;;;;;;0.82;0.63;;;23.40;99.90;;;;;;4968109;28;20184;-83
2023/06/19 09:58:56;;;;;;;0.28;0.25;;;23.70;99.90;;;;;;4967763;28;20046;-84
2023/06/19 10:01:23;;;;;;;0.20;0.20;;;24.10;99.90;;;;;;4967199;28;20051;-83
2023/06/19 10:03:49;;;;;;;9.07;0.63;;;24.00;99.90;;;;;;4967340;28;20050;-84
2023/06/19 10:06:16;;;;;;;0.45;0.40;;;23.60;99.90;;;;;;4980997;28;20058;-83
2023/06/19 10:08:43;;;;;;;0.35;0.32;;;23.20;99.90;;;;;;4966834;28;20130;-83
2023/06/19 10:11:10;;;;;;;0.60;0.47;;;23.40;99.90;;;;;;4966270;28;20412;-83
2023/06/19 10:13:39;;;;;;;1.50;0.73;;;23.40;99.90;;;;;;4965657;28;20086;-83
2023/06/19 10:16:06;;;;;;;0.55;0.45;;;23.60;99.90;;;;;;4967494;28;20051;-87
2023/06/19 10:18:43;;;;;;;0.30;0.30;;;23.70;99.90;;;;;;4966460;28;20051;-87
2023/06/19 10:21:17;;;;;;;0.10;0.10;;;24.10;99.90;;;;;;4968268;28;20074;-87
2023/06/19 10:23:42;;;;;;;0.85;0.55;;;24.50;26.60;;;;;;4982569;28;20050;-89
2023/06/19 10:26:08;;;;;;;0.47;0.47;;;24.60;1.00;;;;;;4969331;28;20105;-89
2023/06/19 10:28:34;;;;;;;0.35;0.30;;;24.60;1.00;;;;;;4986176;28;20129;-89
2023/06/19 10:31:05;;;;;;;1.38;0.80;;;24.70;1.00;;;;;;4969693;28;20050;-89
2023/06/19 10:33:40;;;;;;;0.88;0.70;;;24.80;1.00;;;;;;4971365;28;20055;-89
2023/06/19 10:36:15;;;;;;;1.88;1.13;;;24.70;1.00;;;;;;4971397;28;20046;-90
2023/06/19 10:38:46;;;;;;;0.43;0.28;;;24.60;1.00;;;;;;4986145;28;20843;-89
2023/06/19 10:41:31;;;;;;;1.77;1.35;;;24.60;1.00;;;;;;4971457;28;20078;-89
2023/06/19 10:44:02;;;;;;;1.40;0.77;;;25.10;1.00;;;;;;4986334;28;20098;-91
2023/06/19 10:46:37;;;;;;;1.33;1.05;;;25.10;1.00;;;;;;4972693;28;20050;-90
2023/06/19 10:49:20;;;;;;;0.50;0.30;;;25.50;1.00;;;;;;4987734;28;20114;-90
2023/06/19 10:51:48;;;;;;;0.65;0.63;;;25.80;1.00;;;;;;4988802;28;20821;-90
2023/06/19 10:54:16;;;;;;;0.68;0.65;;;25.60;1.00;;;;;;4973832;28;20134;-90
2023/06/19 10:56:50;;;;;;;0.65;0.47;;;25.60;1.00;;;;;;4986691;28;20047;-90
2023/06/19 10:59:18;;;;;;;0.60;0.60;;;25.20;1.00;;;;;;4971374;28;20548;-90
2023/06/19 11:01:48;;;;;;;1.40;1.00;;;25.20;1.00;;;;;;4985877;28;20047;-90
2023/06/19 11:04:15;;;;;;;0.65;0.50;;;25.20;1.00;;;;;;4990253;28;20110;-90
2023/06/19 11:06:43;;;;;;;0.50;0.50;;;25.50;1.00;;;;;;4980374;28;20259;-90
2023/06/19 11:09:11;;;;;;;0.52;0.50;;;25.60;1.00;;;;;;4937695;28;1159568;-89
2023/06/19 11:11:39;;;;;;;11.27;0.98;;;25.40;1.00;;;;;;4955431;28;20414;-90
2023/06/19 11:14:06;;;;;;;0.75;0.55;;;25.60;1.00;;;;;;4986146;28;20058;-89
2023/06/19 11:16:33;;;;;;;1.10;0.90;;;25.50;1.00;;;;;;4986827;28;20117;-90
2023/06/19 11:19:00;;;;;;;0.77;0.68;;;25.70;1.00;;;;;;4986690;28;20053;-90
2023/06/19 11:21:37;;;;;;;1.42;0.70;;;26.90;1.00;;;;;;4970070;28;20046;-90
2023/06/19 11:24:10;;;;;;;1.30;1.05;;;26.00;1.00;;;;;;4970075;28;20572;-90
2023/06/19 11:26:50;;;;;;;1.33;0.82;;;26.00;1.00;;;;;;4971754;28;20047;-90
2023/06/19 11:29:24;;;;;;;0.47;0.47;;;26.30;1.00;;;;;;4969728;28;20047;-90
2023/06/19 11:31:53;;;;;;;1.45;0.90;;;27.00;1.00;;;;;;4985797;28;20053;-90
2023/06/19 11:34:30;;;;;;;0.45;0.45;;;27.20;1.00;;;;;;4970255;28;20058;-90
2023/06/19 11:36:56;;;;;;;0.57;0.22;;;27.00;1.00;;;;;;4971158;28;20050;-90
2023/06/19 11:39:22;;;;;;;1.13;0.75;;;26.60;1.00;;;;;;4971113;28;20061;-90
2023/06/19 11:41:52;;;;;;;1.27;0.52;;;26.60;1.00;;;;;;4971633;28;20069;-90
2023/06/19 11:44:21;;;;;;;0.10;0.10;;;26.40;1.00;;;;;;4970818;28;20065;-90
2023/06/19 11:46:47;;;;;;;1.08;0.38;;;26.70;1.00;;;;;;4970042;28;20121;-90
2023/06/19 11:49:18;;;;;;;1.27;0.88;;;27.60;1.00;;;;;;4969642;28;20050;-90
2023/06/19 11:51:45;;;;;;;3.35;1.65;;;28.40;1.00;;;;;;4969166;28;20046;-90
2023/06/19 11:54:15;;;;;;;0.50;0.47;;;28.50;99.90;;;;;;4984738;28;20617;-90
2023/06/19 11:56:41;;;;;;;1.05;0.77;;;28.70;99.90;;;;;;4986346;28;20050;-90
2023/06/19 11:59:08;;;;;;;0.68;0.60;;;29.20;99.90;;;;;;4969760;28;20057;-90
2023/06/19 12:01:35;;;;;;;1.17;0.88;;;28.40;99.90;;;;;;4986397;28;20126;-90
2023/06/19 12:04:03;;;;;;;0.45;0.45;;;27.90;99.90;;;;;;4969526;28;20050;-90
2023/06/19 12:06:29;;;;;;;1.10;0.50;;;27.40;99.90;;;;;;4985634;28;20096;-89
2023/06/19 12:08:56;;;;;;;2.30;0.73;;;27.50;99.90;;;;;;4969028;28;20391;-89
2023/06/19 12:11:24;;;;;;;1.65;1.20;;;27.70;99.90;;;;;;4969307;28;20051;-88
2023/06/19 12:13:53;;;;;;;2.45;0.77;;;27.50;99.90;;;;;;4971056;28;20074;-88
2023/06/19 12:16:18;;;;;;;0.82;0.60;;;27.70;99.90;;;;;;4969166;28;20050;-88
2023/06/19 12:18:46;;;;;;;0.68;0.68;;;27.70;99.90;;;;;;4969699;28;20379;-89
2023/06/19 12:21:21;;;;;;;5.28;1.33;;;27.80;99.90;;;;;;4985454;28;20054;-89
2023/06/19 12:23:50;;;;;;;2.90;1.85;;;27.70;99.90;;;;;;4969468;28;20109;-88
2023/06/19 12:26:25;;;;;;;2.75;0.70;;;27.70;99.90;;;;;;4969119;28;20042;-88
2023/06/19 12:28:51;;;;;;;0.77;0.70;;;27.40;99.90;;;;;;4968605;28;20058;-88
2023/06/19 12:31:18;;;;;;;3.95;2.20;;;27.50;99.90;;;;;;4969155;28;20057;-88
2023/06/19 12:33:48;;;;;;;0.95;0.82;;;27.80;99.90;;;;;;4969231;28;20050;-89
2023/06/19 12:36:18;;;;;;;1.13;1.02;;;27.40;99.90;;;;;;4954060;28;20050;-88
2023/06/19 12:38:46;;;;;;;1.45;0.95;;;26.90;99.90;;;;;;4969425;28;20047;-88
2023/06/19 12:41:12;;;;;;;0.80;0.68;;;26.80;99.90;;;;;;4969458;28;20058;-88
2023/06/19 12:43:38;;;;;;;1.05;0.75;;;27.20;99.90;;;;;;4988687;28;20049;-88
2023/06/19 12:46:10;;;;;;;2.42;1.55;;;27.50;99.90;;;;;;4985006;28;20046;-87
2023/06/19 12:48:36;;;;;;;1.83;0.85;;;27.70;99.90;;;;;;4967947;28;20904;-88
2023/06/19 12:51:02;;;;;;;2.05;1.35;;;28.10;99.90;;;;;;4984980;28;20093;-88